Time;durP1;ratioP1;P1;durP2;ratioP2;P2;SDS_P1;SDS_P2;PMS_P1;PMS_P2;Temp;Humidity;BMP_temperature;BMP_pressure;BME280_temperature;BME280_humidity;BME280_pressure;Samples;Min_cycle;Max_cycle;Signal;HPM_P1;HPM_P2
2023/06/19 00:01:11;;;;;;;9.50;6.70;;;24.20;48.70;;;;;;4992264;28;20050;-58
2023/06/19 00:03:38;;;;;;;6.78;5.85;;;24.20;48.70;;;;;;4996443;28;20522;-59
2023/06/19 00:06:06;;;;;;;7.90;6.20;;;24.20;48.60;;;;;;4998071;28;20053;-59
2023/06/19 00:08:34;;;;;;;8.18;6.00;;;24.10;48.60;;;;;;4992264;28;20793;-59
2023/06/19 00:11:01;;;;;;;6.82;5.85;;;24.10;48.40;;;;;;4997595;28;20054;-59
2023/06/19 00:13:28;;;;;;;6.18;5.57;;;24.10;48.40;;;;;;4996119;28;20057;-58
2023/06/19 00:16:00;;;;;;;7.50;5.80;;;24.10;48.40;;;;;;4997102;28;20747;-58
2023/06/19 00:18:27;;;;;;;6.97;5.90;;;24.10;48.60;;;;;;4999124;28;20056;-62
2023/06/19 00:20:55;;;;;;;5.68;5.07;;;24.00;48.50;;;;;;4996026;28;20056;-58
2023/06/19 00:23:23;;;;;;;6.57;5.75;;;24.00;48.90;;;;;;4994424;28;20054;-59
2023/06/19 00:25:50;;;;;;;6.00;5.40;;;24.00;48.30;;;;;;4997052;28;20505;-61
2023/06/19 00:28:19;;;;;;;7.47;5.70;;;24.00;48.20;;;;;;4997062;28;20065;-59
2023/06/19 00:30:47;;;;;;;6.40;5.60;;;23.90;48.30;;;;;;4996466;28;20053;-59
2023/06/19 00:33:15;;;;;;;8.52;5.43;;;23.90;48.20;;;;;;4995486;28;20061;-59
2023/06/19 00:35:43;;;;;;;6.35;5.60;;;23.90;48.20;;;;;;4989801;28;20050;-58
2023/06/19 00:38:11;;;;;;;6.88;6.05;;;23.90;48.20;;;;;;4992896;28;20049;-59
2023/06/19 00:40:39;;;;;;;8.45;6.13;;;23.80;48.10;;;;;;4995873;28;20065;-58
2023/06/19 00:43:07;;;;;;;6.47;5.50;;;23.80;48.30;;;;;;5000165;28;20061;-58
2023/06/19 00:45:34;;;;;;;6.35;5.70;;;23.80;48.40;;;;;;4999180;28;20058;-60
2023/06/19 00:48:02;;;;;;;7.40;6.18;;;23.80;48.40;;;;;;4995615;28;20057;-59
2023/06/19 00:50:31;;;;;;;6.60;5.35;;;23.80;48.30;;;;;;4989950;28;20060;-59
2023/06/19 00:52:59;;;;;;;7.57;6.07;;;23.80;48.20;;;;;;4993979;28;20509;-58
2023/06/19 00:55:29;;;;;;;6.88;5.32;;;23.80;48.10;;;;;;4993661;28;20054;-59
2023/06/19 00:57:56;;;;;;;7.95;6.03;;;23.80;48.10;;;;;;4995681;28;20057;-59
2023/06/19 01:00:24;;;;;;;7.55;6.13;;;23.80;48.00;;;;;;4993394;28;20046;-58
2023/06/19 01:02:51;;;;;;;6.55;5.80;;;23.70;47.90;;;;;;5007860;23;20056;-57
2023/06/19 01:05:19;;;;;;;6.82;5.93;;;23.70;47.90;;;;;;5017170;28;20064;-57
2023/06/19 01:07:54;;;;;;;8.35;6.72;;;23.70;48.00;;;;;;5017639;28;20049;-57
2023/06/19 01:10:28;;;;;;;7.50;5.85;;;23.70;48.20;;;;;;5017739;28;20531;-57
2023/06/19 01:13:00;;;;;;;7.35;5.38;;;23.70;48.20;;;;;;5013823;28;20053;-57
2023/06/19 01:15:27;;;;;;;6.35;5.70;;;23.70;48.20;;;;;;5016570;28;20068;-57
2023/06/19 01:17:55;;;;;;;8.05;5.90;;;23.70;48.10;;;;;;5019390;28;20488;-57
2023/06/19 01:20:23;;;;;;;6.32;5.40;;;23.70;48.20;;;;;;5015107;28;20523;-58
2023/06/19 01:22:56;;;;;;;8.57;5.88;;;23.70;48.20;;;;;;5014349;28;20049;-57
2023/06/19 01:25:24;;;;;;;7.53;6.05;;;23.60;48.20;;;;;;5016416;28;20055;-57
2023/06/19 01:27:52;;;;;;;6.97;5.80;;;23.60;48.20;;;;;;5020015;28;20401;-58
2023/06/19 01:30:20;;;;;;;7.45;6.07;;;23.60;48.30;;;;;;5017599;28;20062;-57
2023/06/19 01:32:55;;;;;;;7.70;6.18;;;23.60;48.40;;;;;;5016213;28;20060;-57
2023/06/19 01:35:28;;;;;;;12.43;6.30;;;23.60;48.50;;;;;;5019462;28;20053;-57
2023/06/19 01:37:57;;;;;;;6.55;5.72;;;23.60;48.50;;;;;;5010135;28;20050;-57
2023/06/19 01:40:25;;;;;;;10.45;6.25;;;23.60;48.40;;;;;;5014403;28;20053;-57
2023/06/19 01:42:54;;;;;;;7.13;5.75;;;23.60;48.40;;;;;;5015634;28;20053;-57
2023/06/19 01:45:21;;;;;;;6.75;6.03;;;23.60;48.40;;;;;;5013745;28;20053;-57
2023/06/19 01:47:48;;;;;;;7.10;5.80;;;23.60;48.40;;;;;;5017680;28;20062;-56
2023/06/19 01:50:16;;;;;;;6.65;5.63;;;23.60;48.30;;;;;;5015340;28;20052;-57
2023/06/19 01:52:43;;;;;;;8.85;6.07;;;23.60;48.30;;;;;;5014513;28;20080;-57
2023/06/19 01:55:12;;;;;;;7.07;6.25;;;23.60;48.30;;;;;;5014749;28;20049;-57
2023/06/19 01:57:39;;;;;;;6.95;6.25;;;23.60;48.40;;;;;;5016289;28;20061;-57
2023/06/19 02:00:09;;;;;;;8.43;5.47;;;23.60;48.40;;;;;;5018518;28;20057;-56
2023/06/19 02:02:37;;;;;;;6.35;5.72;;;23.50;48.30;;;;;;5014650;28;20121;-56
2023/06/19 02:05:04;;;;;;;6.72;5.75;;;23.50;48.40;;;;;;5001404;28;20041;-56
2023/06/19 02:07:32;;;;;;;6.60;5.60;;;23.50;48.50;;;;;;4998923;28;20058;-54
2023/06/19 02:09:59;;;;;;;9.43;5.82;;;23.50;48.50;;;;;;4998008;28;20062;-56
2023/06/19 02:12:28;;;;;;;8.18;5.70;;;23.50;48.50;;;;;;4999472;28;20054;-54
2023/06/19 02:14:55;;;;;;;7.32;5.82;;;23.50;48.50;;;;;;4998066;28;20065;-52
2023/06/19 02:17:22;;;;;;;7.53;6.03;;;23.50;48.50;;;;;;4996857;28;20061;-53
2023/06/19 02:19:49;;;;;;;6.00;5.30;;;23.40;48.50;;;;;;4995463;28;20057;-52
2023/06/19 02:22:18;;;;;;;11.30;6.10;;;23.40;48.50;;;;;;4996434;28;20045;-54
2023/06/19 02:24:45;;;;;;;8.20;6.35;;;23.40;48.60;;;;;;4999946;28;20046;-54
2023/06/19 02:27:13;;;;;;;6.88;5.88;;;23.40;48.70;;;;;;4996570;28;20053;-53
2023/06/19 02:29:41;;;;;;;6.60;5.85;;;23.40;48.80;;;;;;4998796;28;20053;-53
2023/06/19 02:32:09;;;;;;;6.60;5.47;;;23.40;48.90;;;;;;4997268;28;20046;-51
2023/06/19 02:34:36;;;;;;;6.22;5.57;;;23.30;49.50;;;;;;5002516;28;20517;-55
2023/06/19 02:37:03;;;;;;;7.93;5.95;;;23.40;49.00;;;;;;5002396;28;20064;-52
2023/06/19 02:39:31;;;;;;;6.20;5.60;;;23.30;48.90;;;;;;5000821;28;20064;-52
2023/06/19 02:41:58;;;;;;;6.38;5.38;;;23.30;48.80;;;;;;5002022;28;20386;-50
2023/06/19 02:44:25;;;;;;;6.70;4.93;;;23.30;48.70;;;;;;4999160;28;20054;-55
2023/06/19 02:46:54;;;;;;;7.68;5.10;;;23.30;48.50;;;;;;4997604;28;20049;-53
2023/06/19 02:49:21;;;;;;;6.72;5.55;;;23.30;48.50;;;;;;4999751;28;20072;-52
2023/06/19 02:51:49;;;;;;;6.20;4.85;;;23.30;48.50;;;;;;4999110;28;20065;-51
2023/06/19 02:54:16;;;;;;;8.50;4.85;;;23.30;48.60;;;;;;4997355;28;20049;-54
2023/06/19 02:56:43;;;;;;;5.35;4.82;;;23.30;48.50;;;;;;4997283;28;20054;-52
2023/06/19 02:59:10;;;;;;;8.27;4.93;;;23.30;48.40;;;;;;4998447;28;20050;-52
2023/06/19 03:01:37;;;;;;;11.60;5.13;;;23.30;48.20;;;;;;4999908;28;20634;-52
2023/06/19 03:04:06;;;;;;;5.85;4.95;;;23.40;48.30;;;;;;4998136;28;20057;-50
2023/06/19 03:06:39;;;;;;;5.78;4.50;;;23.40;48.40;;;;;;4996033;28;20061;-55
2023/06/19 03:09:11;;;;;;;7.03;4.80;;;23.40;48.40;;;;;;4996778;28;20060;-52
2023/06/19 03:11:39;;;;;;;7.10;4.93;;;23.40;48.40;;;;;;4997890;28;20046;-53
2023/06/19 03:14:07;;;;;;;7.53;5.00;;;23.40;48.50;;;;;;4999185;28;20050;-55
2023/06/19 03:16:35;;;;;;;6.93;5.00;;;23.40;48.90;;;;;;5000744;28;20500;-52
2023/06/19 03:19:03;;;;;;;6.00;5.03;;;23.40;48.50;;;;;;4997829;28;20069;-53
2023/06/19 03:21:31;;;;;;;6.15;5.05;;;23.40;48.50;;;;;;4996120;28;20064;-54
2023/06/19 03:23:58;;;;;;;7.20;5.25;;;23.40;48.50;;;;;;4997781;28;20069;-52
2023/06/19 03:26:26;;;;;;;5.47;4.72;;;23.40;48.50;;;;;;4997766;28;20061;-50
2023/06/19 03:28:53;;;;;;;5.47;4.88;;;23.40;48.50;;;;;;4997279;28;20053;-50
2023/06/19 03:31:21;;;;;;;6.43;4.88;;;23.40;48.50;;;;;;4997319;28;20065;-52
2023/06/19 03:33:48;;;;;;;6.03;4.78;;;23.40;48.60;;;;;;4994854;28;20094;-50
2023/06/19 03:36:15;;;;;;;8.30;5.00;;;23.40;48.60;;;;;;4993053;28;20061;-54
2023/06/19 03:38:44;;;;;;;6.88;5.50;;;23.40;48.50;;;;;;4995987;28;20520;-52
2023/06/19 03:41:11;;;;;;;9.32;5.63;;;23.40;48.50;;;;;;4998390;28;20050;-49
2023/06/19 03:43:39;;;;;;;6.60;5.05;;;23.40;48.40;;;;;;4999533;28;20049;-54
2023/06/19 03:46:06;;;;;;;7.25;5.00;;;23.40;48.40;;;;;;4997588;28;20054;-49
2023/06/19 03:48:33;;;;;;;8.02;5.00;;;23.40;48.40;;;;;;4998487;28;20058;-52
2023/06/19 03:51:01;;;;;;;7.50;4.95;;;23.40;48.50;;;;;;4994758;28;20061;-53
2023/06/19 03:53:28;;;;;;;8.18;4.90;;;23.40;48.60;;;;;;4997917;28;20050;-53
2023/06/19 03:55:57;;;;;;;6.38;4.90;;;23.40;48.60;;;;;;4997606;28;20056;-50
2023/06/19 03:58:24;;;;;;;7.13;5.13;;;23.40;48.70;;;;;;4995625;28;20418;-50
2023/06/19 04:00:52;;;;;;;7.03;5.25;;;23.40;48.70;;;;;;4996640;28;20049;-51
2023/06/19 04:03:19;;;;;;;8.88;4.82;;;23.40;48.80;;;;;;4995973;28;21156;-48
2023/06/19 04:05:47;;;;;;;6.95;5.15;;;23.40;48.80;;;;;;4995497;28;20062;-49
2023/06/19 04:08:14;;;;;;;5.85;4.97;;;23.40;48.70;;;;;;4994349;28;20054;-47
2023/06/19 04:10:41;;;;;;;9.85;7.45;;;23.40;48.80;;;;;;4999214;28;20057;-51
2023/06/19 04:13:10;;;;;;;10.05;7.05;;;23.40;48.80;;;;;;4997409;28;20510;-50
2023/06/19 04:15:37;;;;;;;7.13;5.60;;;23.30;48.70;;;;;;4997597;28;20066;-51
2023/06/19 04:18:04;;;;;;;8.93;5.00;;;23.30;48.60;;;;;;4992475;28;20050;-50
2023/06/19 04:20:32;;;;;;;10.02;5.50;;;23.40;48.70;;;;;;4998351;28;20501;-53
2023/06/19 04:22:59;;;;;;;5.32;4.50;;;23.30;48.60;;;;;;4995917;28;20038;-50
2023/06/19 04:25:27;;;;;;;5.25;4.40;;;23.30;48.70;;;;;;4997253;28;20050;-52
2023/06/19 04:27:54;;;;;;;6.60;4.47;;;23.30;48.80;;;;;;4994427;28;20054;-52
2023/06/19 04:30:23;;;;;;;6.10;4.28;;;23.30;48.90;;;;;;4995504;28;20386;-53
2023/06/19 04:32:52;;;;;;;5.95;4.50;;;23.30;49.00;;;;;;4999157;28;20050;-56
2023/06/19 04:35:20;;;;;;;7.70;4.95;;;23.40;49.10;;;;;;5001150;28;20058;-56
2023/06/19 04:37:48;;;;;;;7.05;4.65;;;23.40;49.20;;;;;;5000612;28;20057;-56
2023/06/19 04:40:15;;;;;;;8.60;5.85;;;23.40;49.20;;;;;;4999463;28;20058;-55
2023/06/19 04:42:43;;;;;;;8.15;5.30;;;23.40;49.20;;;;;;4998473;28;20085;-54
2023/06/19 04:45:11;;;;;;;6.57;5.32;;;23.40;49.40;;;;;;5000479;28;20049;-54
2023/06/19 04:47:40;;;;;;;9.18;4.85;;;23.40;49.40;;;;;;4998809;28;20058;-52
2023/06/19 04:50:09;;;;;;;6.53;4.95;;;23.50;49.50;;;;;;5000629;28;20053;-56
2023/06/19 04:52:37;;;;;;;6.68;5.60;;;23.50;49.50;;;;;;4998298;28;20049;-57
2023/06/19 04:55:09;;;;;;;10.60;5.93;;;23.50;49.50;;;;;;5000115;28;20054;-56
2023/06/19 04:57:36;;;;;;;6.70;5.32;;;23.50;49.50;;;;;;5000304;28;20062;-55
2023/06/19 05:00:06;;;;;;;7.70;5.57;;;23.50;49.50;;;;;;5001682;28;20050;-54
2023/06/19 05:02:34;;;;;;;10.27;5.45;;;23.50;49.60;;;;;;4996930;28;20061;-56
2023/06/19 05:05:03;;;;;;;8.95;4.93;;;23.50;49.60;;;;;;4998871;28;20061;-56
2023/06/19 05:07:31;;;;;;;6.32;5.03;;;23.50;49.70;;;;;;4998452;28;20056;-57
2023/06/19 05:09:58;;;;;;;6.05;4.80;;;23.50;49.60;;;;;;5002369;28;20489;-56
2023/06/19 05:12:25;;;;;;;6.70;4.78;;;23.50;49.80;;;;;;5000739;28;20058;-56
2023/06/19 05:14:53;;;;;;;9.93;4.97;;;23.60;49.70;;;;;;4999315;28;20051;-56
2023/06/19 05:17:20;;;;;;;5.63;4.75;;;23.60;49.80;;;;;;4999805;28;20489;-57
2023/06/19 05:19:47;;;;;;;5.55;4.60;;;23.60;49.70;;;;;;4999451;28;20058;-56
2023/06/19 05:22:18;;;;;;;7.13;5.00;;;23.60;49.80;;;;;;4995430;28;20050;-56
2023/06/19 05:24:45;;;;;;;7.30;4.65;;;23.60;50.00;;;;;;4999375;28;20057;-56
2023/06/19 05:27:13;;;;;;;7.65;5.25;;;23.60;49.90;;;;;;5000213;28;20054;-57
2023/06/19 05:29:40;;;;;;;6.80;4.90;;;23.70;50.20;;;;;;5000582;28;20053;-54
2023/06/19 05:32:08;;;;;;;6.18;4.80;;;23.70;50.10;;;;;;4998587;28;20080;-55
2023/06/19 05:34:35;;;;;;;6.38;4.18;;;23.70;50.10;;;;;;5000315;28;20068;-56
2023/06/19 05:37:03;;;;;;;5.97;4.88;;;23.70;50.20;;;;;;4999696;28;20057;-56
2023/06/19 05:39:32;;;;;;;5.88;4.72;;;23.70;50.30;;;;;;4999468;28;20530;-56
2023/06/19 05:41:59;;;;;;;6.40;4.75;;;23.80;50.40;;;;;;4999132;28;20497;-57
2023/06/19 05:44:26;;;;;;;6.20;4.78;;;23.80;50.40;;;;;;4999077;28;20061;-54
2023/06/19 05:46:53;;;;;;;6.22;4.80;;;23.80;50.30;;;;;;4997484;28;20398;-54
2023/06/19 05:49:21;;;;;;;5.93;4.78;;;23.80;50.20;;;;;;5000052;28;20049;-56
2023/06/19 05:51:48;;;;;;;5.63;4.53;;;23.80;50.10;;;;;;4997985;28;20046;-56
2023/06/19 05:54:17;;;;;;;5.57;4.82;;;23.80;50.10;;;;;;4997546;28;20049;-54
2023/06/19 05:56:46;;;;;;;5.10;4.38;;;23.80;50.30;;;;;;4998241;28;20056;-56
2023/06/19 05:59:15;;;;;;;7.07;4.78;;;23.80;50.30;;;;;;5000862;28;20513;-54
2023/06/19 06:01:42;;;;;;;7.55;4.57;;;23.80;50.30;;;;;;4996503;28;20058;-54
2023/06/19 06:04:09;;;;;;;6.22;4.65;;;23.80;50.30;;;;;;4999638;28;20060;-51
2023/06/19 06:06:37;;;;;;;5.25;4.32;;;23.80;50.40;;;;;;4999414;28;20050;-55
2023/06/19 06:09:04;;;;;;;5.28;4.32;;;23.90;50.40;;;;;;4999616;28;20485;-52
2023/06/19 06:11:32;;;;;;;5.13;4.45;;;23.90;50.40;;;;;;4996069;28;20053;-55
2023/06/19 06:14:00;;;;;;;5.72;4.40;;;24.00;50.40;;;;;;4999889;28;20054;-54
2023/06/19 06:16:28;;;;;;;5.40;4.65;;;24.00;50.40;;;;;;4997357;28;20415;-55
2023/06/19 06:18:55;;;;;;;5.25;4.50;;;24.00;50.30;;;;;;4998641;28;20054;-54
2023/06/19 06:21:22;;;;;;;8.63;5.95;;;24.00;50.30;;;;;;4995009;28;20054;-56
2023/06/19 06:23:49;;;;;;;6.13;5.18;;;24.00;50.40;;;;;;4994873;28;20041;-56
2023/06/19 06:26:16;;;;;;;5.63;4.57;;;24.00;50.40;;;;;;5001386;28;20061;-53
2023/06/19 06:28:44;;;;;;;6.20;4.72;;;24.10;50.50;;;;;;5000652;28;20057;-56
2023/06/19 06:31:12;;;;;;;5.47;4.32;;;24.10;50.50;;;;;;4999871;28;20069;-56
2023/06/19 06:33:39;;;;;;;6.13;4.10;;;24.10;50.50;;;;;;5001278;28;20049;-58
2023/06/19 06:36:07;;;;;;;5.13;4.25;;;24.10;50.40;;;;;;5000918;28;20054;-57
2023/06/19 06:38:34;;;;;;;5.55;4.18;;;24.10;50.50;;;;;;5000129;28;20053;-56
2023/06/19 06:41:01;;;;;;;7.20;4.47;;;24.10;50.60;;;;;;5000881;28;20512;-56
2023/06/19 06:43:28;;;;;;;9.10;4.43;;;24.10;50.60;;;;;;4999096;28;20050;-57
2023/06/19 06:45:56;;;;;;;5.53;4.50;;;24.20;50.60;;;;;;5002675;28;20050;-54
2023/06/19 06:48:25;;;;;;;5.57;4.38;;;24.20;50.60;;;;;;5000437;28;20406;-57
2023/06/19 06:50:58;;;;;;;6.75;4.13;;;24.30;50.60;;;;;;5002774;28;20065;-50
2023/06/19 06:53:27;;;;;;;5.50;4.28;;;24.30;50.40;;;;;;5001434;28;20060;-55
2023/06/19 06:55:55;;;;;;;5.50;4.03;;;24.30;50.40;;;;;;5002815;28;20066;-56
2023/06/19 06:58:22;;;;;;;8.35;4.10;;;24.40;50.30;;;;;;5002545;28;20058;-52
2023/06/19 07:00:50;;;;;;;5.15;3.78;;;24.40;50.20;;;;;;4998477;28;20398;-55
2023/06/19 07:03:18;;;;;;;5.40;3.88;;;24.40;49.80;;;;;;5001722;28;20054;-57
2023/06/19 07:05:47;;;;;;;3.70;3.00;;;24.40;49.70;;;;;;5002247;28;20061;-56
2023/06/19 07:08:15;;;;;;;4.25;3.20;;;24.40;49.50;;;;;;5001442;28;20064;-56
2023/06/19 07:10:42;;;;;;;4.35;3.15;;;24.40;49.50;;;;;;5002431;28;20053;-55
2023/06/19 07:13:09;;;;;;;4.82;3.10;;;24.40;49.50;;;;;;5000215;28;20058;-54
2023/06/19 07:15:36;;;;;;;4.90;3.20;;;24.50;49.70;;;;;;5001124;28;20509;-57
2023/06/19 07:18:04;;;;;;;4.97;3.30;;;24.50;49.30;;;;;;5001699;28;20493;-52
2023/06/19 07:20:31;;;;;;;4.13;3.10;;;24.50;49.50;;;;;;5002605;28;20060;-56
2023/06/19 07:23:00;;;;;;;3.38;2.90;;;24.50;49.50;;;;;;4998995;28;20512;-51
2023/06/19 07:25:27;;;;;;;3.20;2.90;;;24.50;49.30;;;;;;5000408;28;20046;-54
2023/06/19 07:27:54;;;;;;;4.35;2.75;;;24.60;49.40;;;;;;5001705;28;20057;-55
2023/06/19 07:30:22;;;;;;;4.18;2.47;;;24.60;49.30;;;;;;4999666;28;20060;-55
2023/06/19 07:32:49;;;;;;;2.95;2.65;;;24.70;49.20;;;;;;5001041;28;20049;-56
2023/06/19 07:35:16;;;;;;;5.65;3.20;;;24.70;49.70;;;;;;5001608;28;20378;-51
2023/06/19 07:37:44;;;;;;;6.32;3.47;;;24.70;49.10;;;;;;4998143;28;20508;-52
2023/06/19 07:40:13;;;;;;;4.32;2.90;;;24.80;48.90;;;;;;4999515;28;20050;-57
2023/06/19 07:42:40;;;;;;;4.38;2.80;;;24.80;48.80;;;;;;5001766;28;20414;-55
2023/06/19 07:45:08;;;;;;;3.42;2.50;;;24.80;48.90;;;;;;4999460;28;20052;-56
2023/06/19 07:47:36;;;;;;;5.60;3.20;;;25.00;49.10;;;;;;5001948;28;20413;-57
2023/06/19 07:50:04;;;;;;;5.03;3.80;;;25.00;49.10;;;;;;5001174;28;20069;-54
2023/06/19 07:52:31;;;;;;;5.63;3.90;;;25.10;49.10;;;;;;4997393;28;20517;-59
2023/06/19 07:54:59;;;;;;;4.85;3.60;;;25.10;49.00;;;;;;4995727;28;20045;-52
2023/06/19 07:57:28;;;;;;;7.65;4.45;;;25.10;49.50;;;;;;4999311;28;20058;-56
2023/06/19 07:59:56;;;;;;;9.60;4.07;;;25.10;49.20;;;;;;4998336;28;20065;-53
2023/06/19 08:02:23;;;;;;;4.10;3.70;;;25.10;49.40;;;;;;5000617;28;20501;-54
2023/06/19 08:04:50;;;;;;;5.22;4.15;;;25.10;49.20;;;;;;5001478;28;20065;-54
2023/06/19 08:07:18;;;;;;;4.15;3.75;;;25.10;49.30;;;;;;5001686;28;20057;-55
2023/06/19 08:09:45;;;;;;;5.97;4.10;;;25.10;49.70;;;;;;5004969;28;20052;-50
2023/06/19 08:12:12;;;;;;;6.25;4.22;;;25.10;49.60;;;;;;5004471;28;20054;-55
2023/06/19 08:14:41;;;;;;;6.40;5.05;;;25.20;49.90;;;;;;5002687;28;20054;-57
2023/06/19 08:17:08;;;;;;;4.78;3.97;;;25.20;49.60;;;;;;5005695;28;20058;-53
2023/06/19 08:19:35;;;;;;;5.82;3.95;;;25.20;49.60;;;;;;5002721;28;20527;-51
2023/06/19 08:22:03;;;;;;;5.82;3.95;;;25.30;49.50;;;;;;5004176;28;20062;-52
2023/06/19 08:24:30;;;;;;;5.20;3.97;;;25.30;49.20;;;;;;5003821;28;20057;-55
2023/06/19 08:26:58;;;;;;;6.40;4.18;;;25.30;48.90;;;;;;5004889;28;20050;-56
2023/06/19 08:29:25;;;;;;;4.55;4.07;;;25.40;49.00;;;;;;5004129;28;20049;-54
2023/06/19 08:31:54;;;;;;;5.95;4.30;;;25.40;48.60;;;;;;5004850;28;20065;-54
2023/06/19 08:34:21;;;;;;;4.68;3.80;;;25.50;48.40;;;;;;5004262;28;20057;-55
2023/06/19 08:36:48;;;;;;;4.07;3.15;;;25.50;48.40;;;;;;5000678;28;20053;-56
2023/06/19 08:39:16;;;;;;;4.40;3.15;;;25.50;48.30;;;;;;5000857;28;20065;-57
2023/06/19 08:41:43;;;;;;;4.28;3.25;;;25.50;48.10;;;;;;5004432;28;20057;-58
2023/06/19 08:44:10;;;;;;;7.15;3.10;;;25.60;48.00;;;;;;5003097;28;20046;-57
2023/06/19 08:46:38;;;;;;;3.13;2.83;;;25.60;47.90;;;;;;5003525;28;20130;-57
2023/06/19 08:49:07;;;;;;;3.67;2.85;;;25.60;47.80;;;;;;5004737;28;20421;-57
2023/06/19 08:51:34;;;;;;;3.30;2.80;;;25.70;47.70;;;;;;5002712;28;20062;-55
2023/06/19 08:54:04;;;;;;;3.35;2.80;;;25.70;47.70;;;;;;5001811;28;20065;-53
2023/06/19 08:56:33;;;;;;;3.33;2.83;;;25.70;48.10;;;;;;5003941;28;20061;-52
2023/06/19 08:59:10;;;;;;;3.50;2.88;;;25.80;47.70;;;;;;5003105;28;20125;-60
2023/06/19 09:01:37;;;;;;;2.97;2.30;;;25.80;47.20;;;;;;5001587;28;20054;-53
2023/06/19 09:04:13;;;;;;;2.58;2.22;;;25.80;46.90;;;;;;5003880;28;20136;-52
2023/06/19 09:06:50;;;;;;;2.65;2.20;;;25.90;46.40;;;;;;5002384;28;20053;-55
2023/06/19 09:09:17;;;;;;;2.75;1.98;;;25.90;46.30;;;;;;5000583;28;20050;-56
2023/06/19 09:11:55;;;;;;;2.30;2.10;;;25.90;46.50;;;;;;5000678;28;20061;-57
2023/06/19 09:14:31;;;;;;;7.10;1.80;;;25.90;46.50;;;;;;5002564;28;20794;-52
2023/06/19 09:16:59;;;;;;;4.25;2.10;;;25.90;46.40;;;;;;5001372;28;20512;-55
2023/06/19 09:19:27;;;;;;;2.58;1.73;;;25.90;45.70;;;;;;5000196;28;20057;-54
2023/06/19 09:22:00;;;;;;;1.95;1.45;;;25.90;45.80;;;;;;5001710;28;20413;-51
2023/06/19 09:24:35;;;;;;;3.65;1.63;;;25.90;45.10;;;;;;5002526;28;20057;-55
2023/06/19 09:27:11;;;;;;;3.00;1.60;;;26.00;45.40;;;;;;5003861;28;20053;-57
2023/06/19 09:29:39;;;;;;;1.88;1.30;;;26.00;45.20;;;;;;5000259;28;20069;-54
2023/06/19 09:32:19;;;;;;;1.50;1.40;;;26.00;45.20;;;;;;5003309;28;20057;-52
2023/06/19 09:34:50;;;;;;;1.92;1.58;;;26.00;44.70;;;;;;5001053;28;20049;-52
2023/06/19 09:37:23;;;;;;;1.90;1.55;;;26.00;44.30;;;;;;5000190;28;20180;-51
2023/06/19 09:39:54;;;;;;;1.33;1.23;;;26.00;44.60;;;;;;5001473;28;20058;-55
2023/06/19 09:42:27;;;;;;;2.45;1.20;;;26.00;44.80;;;;;;5002989;28;20053;-55
2023/06/19 09:44:59;;;;;;;2.50;1.60;;;26.10;44.70;;;;;;5003562;28;20049;-53
2023/06/19 09:47:31;;;;;;;4.25;1.40;;;26.10;44.90;;;;;;5002908;28;20061;-56
2023/06/19 09:50:01;;;;;;;1.63;1.40;;;26.20;45.00;;;;;;5003718;28;20054;-57
2023/06/19 09:52:29;;;;;;;2.35;1.48;;;26.20;44.70;;;;;;5000626;28;20065;-54
2023/06/19 09:54:57;;;;;;;2.33;1.40;;;26.20;44.40;;;;;;5002960;28;20058;-58
2023/06/19 09:57:25;;;;;;;2.15;1.67;;;26.30;44.60;;;;;;5000985;28;20062;-53
2023/06/19 09:59:54;;;;;;;2.50;1.80;;;26.30;44.00;;;;;;5004085;28;20058;-56
2023/06/19 10:02:22;;;;;;;2.15;1.40;;;26.30;44.00;;;;;;4998048;28;20061;-57
2023/06/19 10:04:52;;;;;;;2.35;2.00;;;26.40;43.90;;;;;;5001488;28;20062;-57
2023/06/19 10:07:22;;;;;;;2.63;1.90;;;26.40;43.80;;;;;;4998557;28;20062;-57
2023/06/19 10:10:00;;;;;;;2.33;1.88;;;26.40;43.80;;;;;;5001411;28;21373;-50
2023/06/19 10:12:41;;;;;;;1.60;1.50;;;26.50;43.70;;;;;;5000288;28;20045;-56
2023/06/19 10:15:14;;;;;;;2.15;1.70;;;26.50;43.80;;;;;;5003017;28;20382;-55
2023/06/19 10:17:47;;;;;;;1.63;1.50;;;26.50;43.60;;;;;;5003833;28;20058;-51
2023/06/19 10:20:27;;;;;;;2.60;1.95;;;26.50;43.40;;;;;;4999953;28;20064;-56
2023/06/19 10:23:01;;;;;;;3.95;1.95;;;26.50;43.70;;;;;;4999886;28;20069;-56
2023/06/19 10:25:31;;;;;;;1.70;1.55;;;26.60;43.50;;;;;;5002117;28;20058;-58
2023/06/19 10:27:59;;;;;;;5.53;2.10;;;26.60;43.60;;;;;;5001087;28;20379;-55
2023/06/19 10:30:26;;;;;;;2.70;1.80;;;26.70;42.40;;;;;;5002414;28;20077;-51
2023/06/19 10:32:54;;;;;;;2.60;2.33;;;26.70;43.10;;;;;;5001558;28;20137;-56
2023/06/19 10:35:24;;;;;;;4.18;2.00;;;26.70;43.00;;;;;;5001328;28;20057;-53
2023/06/19 10:37:52;;;;;;;3.90;1.95;;;26.70;43.00;;;;;;4996781;28;20421;-53
2023/06/19 10:40:21;;;;;;;2.22;1.80;;;26.70;43.00;;;;;;5002304;28;20054;-55
2023/06/19 10:42:48;;;;;;;3.03;1.83;;;26.80;43.00;;;;;;4997565;28;20058;-54
2023/06/19 10:45:20;;;;;;;2.58;1.90;;;26.80;42.90;;;;;;5000789;28;20065;-55
2023/06/19 10:47:47;;;;;;;3.47;1.85;;;26.80;43.20;;;;;;5001989;28;20054;-55
2023/06/19 10:50:15;;;;;;;3.00;1.85;;;26.80;43.00;;;;;;4999999;28;20049;-56
2023/06/19 10:52:44;;;;;;;3.83;2.40;;;26.90;42.90;;;;;;5000084;28;20084;-66
2023/06/19 10:55:12;;;;;;;2.55;2.25;;;26.90;43.10;;;;;;5000757;28;20060;-59
2023/06/19 10:57:45;;;;;;;3.97;2.58;;;26.90;42.10;;;;;;4999101;28;20057;-54
2023/06/19 11:00:23;;;;;;;2.90;2.28;;;26.90;42.50;;;;;;5000700;28;20664;-59
2023/06/19 11:02:50;;;;;;;3.00;2.20;;;27.00;42.10;;;;;;5001295;28;20069;-53
2023/06/19 11:05:20;;;;;;;29.52;18.90;;;27.00;42.40;;;;;;5000490;28;20046;-52
2023/06/19 11:07:52;;;;;;;16.70;10.55;;;27.00;42.90;;;;;;4997148;28;20046;-52
2023/06/19 11:10:23;;;;;;;5.07;3.22;;;27.10;42.40;;;;;;5002116;28;20060;-51
2023/06/19 11:12:55;;;;;;;2.72;2.10;;;27.10;42.10;;;;;;4999618;28;20061;-55
2023/06/19 11:15:29;;;;;;;2.83;2.42;;;27.20;42.20;;;;;;5000980;28;20061;-53
2023/06/19 11:17:57;;;;;;;4.22;2.53;;;27.20;42.30;;;;;;4995679;28;20093;-55
2023/06/19 11:20:25;;;;;;;3.45;2.35;;;27.20;42.30;;;;;;5001319;28;20050;-55
2023/06/19 11:22:56;;;;;;;4.30;2.20;;;27.30;42.10;;;;;;4999472;28;20057;-57
2023/06/19 11:25:24;;;;;;;3.78;2.10;;;27.30;42.20;;;;;;5000899;28;20053;-54
2023/06/19 11:27:54;;;;;;;6.28;2.55;;;27.30;42.00;;;;;;5001019;28;20058;-55
2023/06/19 11:30:31;;;;;;;4.35;2.30;;;27.40;41.60;;;;;;5001400;28;20061;-54
2023/06/19 11:32:59;;;;;;;4.43;2.20;;;27.40;41.20;;;;;;4999408;28;20053;-54
2023/06/19 11:35:35;;;;;;;5.78;2.50;;;27.50;41.80;;;;;;4997438;28;20053;-56
2023/06/19 11:38:03;;;;;;;3.13;2.47;;;27.50;42.40;;;;;;4995571;28;20053;-56
2023/06/19 11:40:40;;;;;;;3.88;2.22;;;27.60;41.70;;;;;;5000840;28;20512;-56
2023/06/19 11:43:09;;;;;;;3.97;2.22;;;27.60;41.80;;;;;;5000410;28;20061;-56
2023/06/19 11:45:47;;;;;;;4.75;2.85;;;27.70;42.00;;;;;;5003242;28;20050;-56
2023/06/19 11:48:14;;;;;;;3.15;2.38;;;27.70;41.60;;;;;;5003406;28;20502;-56
2023/06/19 11:50:41;;;;;;;3.60;2.55;;;27.80;41.60;;;;;;4998545;28;20516;-55
2023/06/19 11:53:09;;;;;;;7.10;2.78;;;27.80;41.10;;;;;;5002963;28;20061;-56
2023/06/19 11:55:36;;;;;;;4.38;2.42;;;27.80;41.30;;;;;;5001696;28;20056;-59
2023/06/19 11:58:03;;;;;;;3.63;2.70;;;27.90;40.40;;;;;;5004627;28;20494;-56
2023/06/19 12:00:32;;;;;;;5.28;2.50;;;27.90;40.50;;;;;;5002801;28;20054;-55
2023/06/19 12:02:59;;;;;;;3.88;3.00;;;27.90;39.80;;;;;;5006016;28;20064;-57
2023/06/19 12:05:26;;;;;;;4.32;3.10;;;27.90;39.80;;;;;;5002932;28;20072;-58
2023/06/19 12:07:53;;;;;;;3.78;2.53;;;27.90;39.80;;;;;;5002935;28;20502;-55
2023/06/19 12:10:21;;;;;;;3.28;2.55;;;27.90;39.70;;;;;;5002497;28;20498;-55
2023/06/19 12:12:48;;;;;;;3.38;2.80;;;27.90;40.80;;;;;;5005370;28;20516;-56
2023/06/19 12:15:16;;;;;;;3.53;2.97;;;27.90;39.40;;;;;;5006103;28;20057;-57
2023/06/19 12:17:44;;;;;;;4.03;2.83;;;27.80;38.90;;;;;;5001440;28;20050;-55
2023/06/19 12:20:13;;;;;;;3.47;2.40;;;27.80;38.90;;;;;;5004558;28;20498;-55
2023/06/19 12:22:41;;;;;;;3.92;2.70;;;27.80;39.30;;;;;;4996961;28;20057;-55
2023/06/19 12:25:09;;;;;;;4.15;2.92;;;27.80;39.20;;;;;;5001411;28;20405;-55
2023/06/19 12:27:36;;;;;;;3.80;2.95;;;27.80;39.60;;;;;;5000648;28;20049;-55
2023/06/19 12:30:04;;;;;;;5.85;2.38;;;27.90;39.10;;;;;;5004729;28;20058;-57
2023/06/19 12:32:31;;;;;;;3.08;2.35;;;27.90;39.60;;;;;;5003113;28;20509;-63
2023/06/19 12:34:59;;;;;;;3.90;2.97;;;28.00;39.50;;;;;;5003588;28;20058;-57
2023/06/19 12:37:28;;;;;;;3.95;2.70;;;28.00;39.40;;;;;;5003779;28;20058;-56
2023/06/19 12:39:55;;;;;;;2.83;2.53;;;28.00;39.30;;;;;;5001994;28;20060;-55
2023/06/19 12:42:22;;;;;;;5.22;2.72;;;28.10;39.20;;;;;;5004551;28;20057;-55
2023/06/19 12:44:49;;;;;;;2.88;2.55;;;28.10;39.20;;;;;;5005394;28;20049;-56
2023/06/19 12:47:18;;;;;;;2.97;2.55;;;28.20;39.20;;;;;;5000929;28;20053;-55
2023/06/19 12:49:45;;;;;;;4.43;3.10;;;28.20;39.30;;;;;;5004023;28;20073;-56
2023/06/19 12:52:13;;;;;;;3.33;2.72;;;28.30;39.10;;;;;;4999062;28;20441;-56